createdAt,value
2022-10-11T00:01:27.803Z,100.00
2022-10-11T00:04:34.667Z,100.00
2022-10-11T00:07:40.214Z,99.11
2022-10-11T00:10:46.480Z,100.00
2022-10-11T00:13:52.604Z,99.82
2022-10-11T00:16:58.439Z,99.86
2022-10-11T00:20:03.418Z,100.00
2022-10-11T00:23:12.254Z,100.00
2022-10-11T00:26:17.143Z,100.00
2022-10-11T00:29:26.583Z,100.00
2022-10-11T00:32:34.182Z,100.00
2022-10-11T00:35:44.580Z,100.00
2022-10-11T00:38:51.291Z,100.00
2022-10-11T00:41:57.611Z,100.00
2022-10-11T00:45:21.159Z,100.00
2022-10-11T00:48:35.649Z,100.00
2022-10-11T00:51:50.577Z,100.00
2022-10-11T00:54:59.484Z,100.00
2022-10-11T00:58:06.409Z,100.00
2022-10-11T01:01:14.168Z,100.00
2022-10-11T01:04:25.185Z,100.00
2022-10-11T01:07:33.545Z,100.00
2022-10-11T01:10:40.400Z,100.00
2022-10-11T01:14:05.206Z,100.00
2022-10-11T01:17:13.034Z,100.00
2022-10-11T01:20:41.221Z,100.00
2022-10-11T01:23:57.889Z,100.00
2022-10-11T01:27:06.091Z,100.00
2022-10-11T01:30:22.045Z,100.00
2022-10-11T01:33:40.454Z,100.00
2022-10-11T01:37:04.722Z,100.00
2022-10-11T01:40:15.230Z,100.00
2022-10-11T01:43:22.444Z,100.00
2022-10-11T01:46:30.487Z,100.00
2022-10-11T01:49:37.810Z,100.00
2022-10-11T01:52:47.000Z,100.00
2022-10-11T01:56:00.565Z,100.00
2022-10-11T01:59:12.749Z,100.00
2022-10-11T02:02:24.803Z,100.00
2022-10-11T02:05:47.406Z,100.00
2022-10-11T02:09:05.734Z,100.00
2022-10-11T02:12:20.545Z,100.00
2022-10-11T02:15:29.782Z,100.00
2022-10-11T02:18:39.975Z,100.00
2022-10-11T02:21:51.725Z,100.00
2022-10-11T02:24:59.603Z,100.00
2022-10-11T02:28:09.575Z,100.00
2022-10-11T02:31:18.768Z,100.00
2022-10-11T02:34:26.732Z,100.00
2022-10-11T02:37:42.327Z,100.00
2022-10-11T02:40:53.131Z,100.00
2022-10-11T02:44:08.708Z,100.00
2022-10-11T02:47:15.912Z,100.00
2022-10-11T02:50:22.804Z,100.00
2022-10-11T02:53:29.652Z,100.00
2022-10-11T02:56:38.663Z,100.00
2022-10-11T02:59:46.629Z,100.00
2022-10-11T03:02:54.956Z,100.00
2022-10-11T03:06:04.105Z,100.00
2022-10-11T03:09:14.608Z,100.00
2022-10-11T03:12:20.541Z,100.00
2022-10-11T03:15:27.230Z,100.00
2022-10-11T03:18:33.809Z,100.00
2022-10-11T03:21:42.638Z,100.00
2022-10-11T03:24:48.761Z,100.00
2022-10-11T03:27:54.919Z,100.00
2022-10-11T03:31:02.227Z,100.00
2022-10-11T03:34:08.714Z,100.00
2022-10-11T03:37:14.294Z,100.00
2022-10-11T03:40:20.327Z,100.00
2022-10-11T03:43:27.121Z,100.00
2022-10-11T03:46:35.687Z,100.00
2022-10-11T03:49:43.675Z,100.00
2022-10-11T03:52:52.455Z,100.00
2022-10-11T03:56:00.262Z,100.00
2022-10-11T03:59:09.385Z,100.00
2022-10-11T04:02:17.154Z,100.00
2022-10-11T04:05:23.419Z,100.00
2022-10-11T04:08:30.404Z,100.00
2022-10-11T04:11:36.321Z,100.00
2022-10-11T04:14:43.098Z,100.00
2022-10-11T04:17:50.094Z,100.00
2022-10-11T04:20:55.679Z,100.00
2022-10-11T04:24:04.068Z,100.00
2022-10-11T04:27:10.668Z,100.00
2022-10-11T04:30:18.918Z,100.00
2022-10-11T04:33:25.280Z,100.00
2022-10-11T04:36:35.596Z,100.00
2022-10-11T04:39:41.066Z,100.00
2022-10-11T04:42:47.678Z,100.00
2022-10-11T04:45:55.492Z,100.00
2022-10-11T04:49:02.170Z,100.00
2022-10-11T04:52:05.723Z,100.00
2022-10-11T04:55:11.356Z,100.00
2022-10-11T04:58:15.776Z,100.00
2022-10-11T05:01:22.745Z,100.00
2022-10-11T05:04:27.947Z,100.00
2022-10-11T05:07:32.216Z,100.00
2022-10-11T05:10:36.236Z,100.00
2022-10-11T05:13:40.273Z,100.00
2022-10-11T05:16:43.508Z,100.00
2022-10-11T05:19:46.982Z,100.00
2022-10-11T05:22:50.846Z,100.00
2022-10-11T05:25:55.103Z,100.00
2022-10-11T05:28:58.397Z,100.00
2022-10-11T05:32:03.083Z,100.00
2022-10-11T05:35:06.696Z,100.00
2022-10-11T05:38:09.926Z,100.00
2022-10-11T05:41:16.253Z,100.00
2022-10-11T05:44:20.621Z,100.00
2022-10-11T05:47:24.231Z,100.00
2022-10-11T05:50:27.806Z,100.00
2022-10-11T05:53:31.585Z,100.00
2022-10-11T05:56:35.973Z,100.00
2022-10-11T05:59:39.542Z,100.00
2022-10-11T06:02:44.838Z,100.00
2022-10-11T06:05:52.134Z,100.00
2022-10-11T06:08:58.185Z,100.00
2022-10-11T06:12:02.275Z,100.00
2022-10-11T06:15:05.124Z,100.00
2022-10-11T06:18:08.260Z,100.00
2022-10-11T06:21:11.182Z,100.00
2022-10-11T06:24:14.090Z,100.00
2022-10-11T06:27:16.587Z,100.00
2022-10-11T06:30:19.476Z,99.82
2022-10-11T06:33:22.891Z,96.52
2022-10-11T06:36:25.879Z,92.61
2022-10-11T06:39:29.596Z,92.24
2022-10-11T06:42:33.479Z,93.08
2022-10-11T06:45:36.599Z,93.54
2022-10-11T06:48:40.937Z,93.74
2022-10-11T06:51:45.022Z,94.46
2022-10-11T06:54:49.974Z,94.41
2022-10-11T06:57:54.343Z,94.25
2022-10-11T07:01:02.812Z,92.78
2022-10-11T07:04:05.695Z,92.39
2022-10-11T07:07:08.992Z,92.32
2022-10-11T07:10:12.417Z,91.54
2022-10-11T07:13:17.309Z,90.23
2022-10-11T07:16:21.436Z,89.52
2022-10-11T07:19:26.153Z,89.27
2022-10-11T07:22:28.745Z,88.74
2022-10-11T07:25:32.317Z,87.58
2022-10-11T07:28:36.232Z,86.20
2022-10-11T07:31:41.574Z,85.85
2022-10-11T07:34:45.727Z,85.23
2022-10-11T07:37:50.686Z,83.65
2022-10-11T07:40:54.058Z,82.71
2022-10-11T07:43:57.373Z,77.98
2022-10-11T07:47:01.327Z,76.65
2022-10-11T07:50:05.820Z,74.96
2022-10-11T07:53:10.020Z,71.00
2022-10-11T07:56:15.488Z,67.55
2022-10-11T07:59:19.074Z,66.45
2022-10-11T08:02:22.217Z,64.94
2022-10-11T08:05:26.303Z,65.35
2022-10-11T08:08:29.806Z,64.25
2022-10-11T08:11:35.526Z,61.81
2022-10-11T08:14:38.400Z,64.46
2022-10-11T08:17:41.601Z,62.62
2022-10-11T08:20:44.856Z,61.69
2022-10-11T08:23:48.194Z,65.19
2022-10-11T08:26:51.949Z,64.33
2022-10-11T08:29:55.169Z,61.35
2022-10-11T08:32:58.115Z,63.72
2022-10-11T08:36:04.447Z,67.37
2022-10-11T08:39:08.295Z,70.85
2022-10-11T08:42:16.675Z,73.56
2022-10-11T08:45:38.724Z,74.07
2022-10-11T08:48:44.245Z,72.80
2022-10-11T08:51:49.510Z,74.17
2022-10-11T08:54:53.813Z,74.44
2022-10-11T08:58:00.086Z,74.23
2022-10-11T09:01:04.857Z,72.94
2022-10-11T09:04:14.199Z,74.03
2022-10-11T09:07:17.488Z,73.12
2022-10-11T09:10:27.264Z,71.91
2022-10-11T09:13:31.963Z,75.29
2022-10-11T09:16:54.762Z,75.78
2022-10-11T09:20:01.367Z,74.22
2022-10-11T09:23:07.986Z,72.39
2022-10-11T09:26:15.693Z,72.63
2022-10-11T09:29:18.970Z,73.26
2022-10-11T09:32:24.851Z,72.50
2022-10-11T09:35:28.683Z,73.89
2022-10-11T09:38:37.250Z,72.54
2022-10-11T09:41:55.486Z,69.26
2022-10-11T09:45:00.360Z,70.37
2022-10-11T09:48:05.721Z,70.55
2022-10-11T09:51:15.762Z,71.14
2022-10-11T09:54:20.561Z,70.97
2022-10-11T09:57:25.497Z,69.72
2022-10-11T10:00:32.735Z,68.16
2022-10-11T10:03:37.339Z,70.22
2022-10-11T10:06:41.880Z,69.02
2022-10-11T10:09:45.313Z,67.08
2022-10-11T10:12:54.234Z,64.96
2022-10-11T10:15:59.751Z,64.86
2022-10-11T10:19:07.919Z,63.71
2022-10-11T10:22:27.725Z,63.06
2022-10-11T10:25:38.471Z,60.35
2022-10-11T10:29:00.294Z,61.52
2022-10-11T10:32:14.723Z,59.80
2022-10-11T10:35:28.019Z,56.34
2022-10-11T10:38:34.590Z,60.29
2022-10-11T10:41:38.764Z,56.12
2022-10-11T10:44:41.824Z,55.16
2022-10-11T10:47:45.787Z,53.79
2022-10-11T10:51:10.434Z,54.14
2022-10-11T10:54:16.692Z,53.08
2022-10-11T10:57:23.618Z,53.67
2022-10-11T11:00:29.769Z,51.20
2022-10-11T11:03:33.422Z,49.43
2022-10-11T11:06:44.582Z,49.12
2022-10-11T11:10:06.160Z,47.41
2022-10-11T11:13:16.418Z,44.63
2022-10-11T11:16:26.318Z,42.87
2022-10-11T11:19:35.064Z,40.01
2022-10-11T11:22:50.746Z,45.49
2022-10-11T11:25:57.471Z,43.83
2022-10-11T11:29:12.737Z,42.24
2022-10-11T11:32:34.979Z,41.67
2022-10-11T11:35:41.774Z,45.43
2022-10-11T11:38:58.119Z,43.10
2022-10-11T11:42:07.242Z,45.35
2022-10-11T11:45:25.235Z,42.92
2022-10-11T11:48:27.782Z,43.53
2022-10-11T11:51:34.045Z,43.63
2022-10-11T11:54:36.694Z,46.02
2022-10-11T11:57:40.589Z,49.09
2022-10-11T12:00:53.947Z,55.47
2022-10-11T12:04:02.157Z,58.14
2022-10-11T12:07:16.359Z,54.88
2022-10-11T12:10:27.491Z,47.51
2022-10-11T12:13:38.133Z,42.88
2022-10-11T12:17:02.217Z,43.25
2022-10-11T12:20:21.915Z,47.01
2022-10-11T12:23:31.414Z,53.07
2022-10-11T12:26:36.140Z,56.20
2022-10-11T12:29:49.305Z,57.17
2022-10-11T12:32:53.058Z,57.16
2022-10-11T12:35:56.294Z,58.94
2022-10-11T12:39:18.362Z,54.83
2022-10-11T12:42:23.926Z,55.54
2022-10-11T12:45:32.479Z,55.91
2022-10-11T12:48:40.754Z,57.77
2022-10-11T12:51:59.181Z,58.89
2022-10-11T12:55:22.047Z,59.20
2022-10-11T12:58:27.814Z,59.51
2022-10-11T13:01:48.743Z,59.91
2022-10-11T13:04:52.021Z,59.49
2022-10-11T13:07:58.422Z,60.35
2022-10-11T13:11:04.420Z,59.44
2022-10-11T13:14:17.047Z,58.94
2022-10-11T13:17:22.742Z,58.99
2022-10-11T13:20:29.854Z,60.43
2022-10-11T13:23:39.511Z,62.91
2022-10-11T13:26:48.026Z,60.11
2022-10-11T13:29:53.404Z,60.02
2022-10-11T13:32:59.466Z,57.79
2022-10-11T13:36:05.599Z,58.22
2022-10-11T13:39:30.038Z,57.04
2022-10-11T13:42:35.489Z,54.69
2022-10-11T13:45:41.814Z,56.30
2022-10-11T13:48:46.433Z,53.31
2022-10-11T13:52:01.556Z,53.20
2022-10-11T13:55:11.707Z,51.76
2022-10-11T13:58:35.897Z,53.82
2022-10-11T14:01:41.790Z,57.49
2022-10-11T14:04:45.634Z,60.38
2022-10-11T14:07:50.342Z,62.18
2022-10-11T14:10:57.199Z,62.58
2022-10-11T14:14:22.854Z,62.27
2022-10-11T14:17:37.707Z,62.20
2022-10-11T14:20:42.358Z,64.31
2022-10-11T14:23:53.733Z,65.20
2022-10-11T14:26:58.188Z,64.65
2022-10-11T14:33:28.771Z,65.37
2022-10-11T14:36:34.331Z,65.78
2022-10-11T14:39:39.106Z,65.93
2022-10-11T14:42:46.048Z,66.34
2022-10-11T14:45:50.204Z,65.39
2022-10-11T14:48:56.726Z,65.91
2022-10-11T14:52:01.675Z,68.17
2022-10-11T14:55:08.815Z,67.52
2022-10-11T14:58:15.918Z,67.32
2022-10-11T15:01:20.596Z,67.84
2022-10-11T15:04:26.826Z,68.10
2022-10-11T15:07:33.482Z,68.35
2022-10-11T15:10:40.739Z,67.92
2022-10-11T15:13:48.306Z,67.03
2022-10-11T15:16:53.398Z,68.11
2022-10-11T15:19:57.241Z,68.34
2022-10-11T15:23:01.831Z,69.90
2022-10-11T15:26:06.596Z,70.58
2022-10-11T15:29:12.896Z,71.60
2022-10-11T15:32:17.403Z,72.12
2022-10-11T15:35:23.810Z,71.52
2022-10-11T15:38:29.089Z,72.29
2022-10-11T15:41:35.926Z,72.99
2022-10-11T15:44:42.047Z,73.56
2022-10-11T15:47:47.223Z,74.45
2022-10-11T15:50:52.914Z,74.58
2022-10-11T15:53:58.822Z,73.63
2022-10-11T15:57:06.728Z,75.02
2022-10-11T16:00:12.057Z,74.84
2022-10-11T16:03:17.483Z,75.68
2022-10-11T16:06:23.858Z,75.74
2022-10-11T16:09:29.645Z,77.38
2022-10-11T16:12:35.740Z,77.98
2022-10-11T16:15:43.119Z,77.91
2022-10-11T16:18:56.371Z,78.63
2022-10-11T16:22:02.856Z,78.53
2022-10-11T16:25:09.332Z,79.57
2022-10-11T16:28:15.650Z,80.79
2022-10-11T16:31:21.680Z,82.13
2022-10-11T16:34:28.121Z,82.93
2022-10-11T16:37:34.537Z,83.87
2022-10-11T16:40:42.109Z,83.86
2022-10-11T16:43:51.257Z,84.97
2022-10-11T16:46:57.394Z,86.53
2022-10-11T16:50:06.307Z,87.50
2022-10-11T16:53:11.010Z,89.23
2022-10-11T16:56:17.316Z,90.04
2022-10-11T16:59:22.915Z,91.41
2022-10-11T17:02:32.444Z,92.70
2022-10-11T17:05:37.844Z,93.15
2022-10-11T17:08:45.490Z,93.09
2022-10-11T17:11:50.390Z,95.19
2022-10-11T17:14:56.311Z,95.09
2022-10-11T17:18:03.005Z,94.96
2022-10-11T17:21:13.288Z,93.72
2022-10-11T17:24:19.593Z,92.42
2022-10-11T17:27:28.562Z,93.87
2022-10-11T17:30:33.800Z,94.22
2022-10-11T17:33:39.422Z,95.57
2022-10-11T17:36:46.321Z,94.84
2022-10-11T17:39:54.950Z,94.50
2022-10-11T17:43:00.176Z,94.56
2022-10-11T17:46:08.146Z,95.11
2022-10-11T17:49:15.031Z,94.45
2022-10-11T17:52:21.104Z,94.80
2022-10-11T17:55:27.262Z,94.44
2022-10-11T17:58:33.449Z,93.81
2022-10-11T18:01:40.459Z,93.67
2022-10-11T18:04:48.588Z,93.73
2022-10-11T18:07:56.065Z,94.37
2022-10-11T18:11:04.284Z,94.39
2022-10-11T18:14:11.562Z,94.13
2022-10-11T18:17:19.149Z,94.14
2022-10-11T18:20:27.205Z,93.81
2022-10-11T18:23:33.457Z,94.04
2022-10-11T18:26:39.551Z,93.28
2022-10-11T18:29:50.660Z,93.73
2022-10-11T18:32:59.485Z,93.77
2022-10-11T18:36:07.876Z,93.98
2022-10-11T18:39:15.286Z,94.21
2022-10-11T18:42:22.195Z,95.06
2022-10-11T18:45:28.101Z,94.88
2022-10-11T18:48:33.908Z,94.90
2022-10-11T18:51:41.138Z,95.24
2022-10-11T18:54:48.140Z,95.20
2022-10-11T18:57:55.951Z,95.04
2022-10-11T19:01:12.664Z,95.18
2022-10-11T19:04:19.983Z,96.10
2022-10-11T19:07:26.157Z,95.98
2022-10-11T19:10:33.574Z,97.33
2022-10-11T19:13:38.934Z,98.63
2022-10-11T19:16:47.186Z,100.00
2022-10-11T19:19:55.412Z,100.00
2022-10-11T19:23:01.345Z,100.00
2022-10-11T19:26:07.939Z,100.00
2022-10-11T19:29:15.934Z,100.00
2022-10-11T19:32:22.407Z,100.00
2022-10-11T19:35:27.852Z,100.00
2022-10-11T19:38:36.353Z,100.00
2022-10-11T19:41:41.275Z,100.00
2022-10-11T19:44:47.539Z,100.00
2022-10-11T19:47:54.618Z,100.00
2022-10-11T19:51:09.922Z,99.78
2022-10-11T19:54:16.307Z,99.75
2022-10-11T19:57:23.027Z,100.00
2022-10-11T20:00:28.282Z,100.00
2022-10-11T20:03:36.312Z,98.62
2022-10-11T20:06:44.588Z,99.55
2022-10-11T20:09:52.092Z,100.00
2022-10-11T20:12:58.141Z,100.00
2022-10-11T20:16:06.074Z,100.00
2022-10-11T20:19:12.506Z,100.00
2022-10-11T20:22:17.491Z,100.00
2022-10-11T20:25:23.862Z,100.00
2022-10-11T20:28:30.813Z,100.00
2022-10-11T20:31:39.051Z,100.00
2022-10-11T20:34:47.613Z,100.00
2022-10-11T20:37:57.456Z,100.00
2022-10-11T20:41:10.920Z,100.00
2022-10-11T20:44:17.323Z,100.00
2022-10-11T20:47:24.370Z,100.00
2022-10-11T20:50:29.574Z,100.00
2022-10-11T20:53:37.150Z,100.00
2022-10-11T20:56:43.457Z,100.00
2022-10-11T20:59:51.153Z,100.00
2022-10-11T21:02:59.561Z,100.00
2022-10-11T21:06:06.554Z,100.00
2022-10-11T21:09:15.612Z,100.00
2022-10-11T21:12:23.887Z,100.00
2022-10-11T21:15:31.491Z,100.00
2022-10-11T21:18:36.978Z,100.00
2022-10-11T21:21:40.774Z,100.00
2022-10-11T21:24:44.054Z,100.00
2022-10-11T21:27:48.310Z,100.00
2022-10-11T21:30:56.958Z,100.00
2022-10-11T21:34:00.306Z,100.00
2022-10-11T21:37:04.967Z,100.00
2022-10-11T21:40:12.119Z,100.00
2022-10-11T21:43:19.895Z,100.00
2022-10-11T21:46:54.134Z,100.00
2022-10-11T21:49:56.087Z,100.00
2022-10-11T21:53:03.021Z,100.00
2022-10-11T21:56:08.382Z,100.00
2022-10-11T21:59:15.238Z,100.00
2022-10-11T22:02:22.088Z,100.00
2022-10-11T22:05:28.143Z,100.00
2022-10-11T22:08:34.839Z,100.00
2022-10-11T22:11:40.550Z,100.00
2022-10-11T22:14:47.850Z,100.00
2022-10-11T22:17:55.069Z,100.00
2022-10-11T22:21:08.451Z,100.00
2022-10-11T22:24:14.466Z,100.00
2022-10-11T22:27:19.691Z,100.00
2022-10-11T22:30:24.549Z,100.00
2022-10-11T22:33:30.046Z,100.00
2022-10-11T22:36:36.103Z,100.00
2022-10-11T22:39:45.476Z,100.00
2022-10-11T22:42:55.480Z,100.00
2022-10-11T22:45:59.938Z,100.00
2022-10-11T22:49:07.006Z,100.00
2022-10-11T22:52:14.951Z,100.00
2022-10-11T22:55:20.293Z,100.00
2022-10-11T22:58:24.327Z,100.00
2022-10-11T23:01:30.273Z,100.00
2022-10-11T23:04:37.597Z,100.00
2022-10-11T23:07:42.954Z,100.00
2022-10-11T23:10:50.661Z,100.00
2022-10-11T23:13:57.648Z,100.00
2022-10-11T23:17:06.121Z,100.00
2022-10-11T23:20:13.904Z,100.00
2022-10-11T23:23:19.876Z,100.00
2022-10-11T23:26:30.033Z,100.00
2022-10-11T23:29:36.744Z,100.00
2022-10-11T23:32:42.076Z,100.00
2022-10-11T23:35:48.126Z,100.00
2022-10-11T23:38:57.505Z,100.00
2022-10-11T23:42:01.768Z,100.00
2022-10-11T23:45:07.825Z,100.00
2022-10-11T23:48:13.352Z,100.00
2022-10-11T23:51:19.605Z,100.00
2022-10-11T23:54:26.071Z,100.00
2022-10-11T23:57:32.741Z,100.00
